Montrose, Colorado
Current Conditions -  °F | °C
As of 6:53 AM on Saturday 25 Oct 2014 (Local Time) from KMTJ Reporting Station
Clear Clear  
Wind Chill:   Ceiling: Unl
Heat Index:   Visibility: 10mi
Dew Point: -2°   Wind: 9mph
Humidity: 63%   Direction: 160°SSE
Pressure: 30.33"   Gusts: NA
Location:  38.48°N, 107.87°W
Report Text: KMTJ 251253Z AUTO 16008KT 10SM CLR 04/M02 A3033 RMK AO2 SLP230 T00441022
Loading
Personal Weather Stations






























Interactive Weather Map
Tropical Storm Tracking
New forecast layout! Learn more

10-Day Weather Forecast

Advertisements
Track Severe Weather on mobile